N7QNM-13 Weather Reports


Display with metric or nautical units.
time (UTC)temp
F
wind
direction
speed
MPH
gust
MPH
rain 1hr
in
rain 24hr
in
rain mn
in
humidity
%
barometer
mb
20240520083608 54 231 12.0 19.0 0.00 0.00 0.00 47 1019.6
20240520082526 54 228 11.0 17.0 0.00 0.00 0.00 48 1019.7
20240520081526 54 243 10.0 14.0 0.00 0.00 0.00 48 1019.7
20240520080528 54 238 11.0 18.0 0.00 0.00 0.00 48 1019.7
20240520075527 54 232 11.0 18.0 0.00 0.00 0.00 47 1019.7
20240520074526 54 232 12.0 18.0 0.00 0.00 0.00 47 1019.7
20240520073527 54 237 12.0 18.0 0.00 0.00 0.00 47 1019.8
20240520072527 54 233 12.0 21.0 0.00 0.00 0.00 47 1019.7
20240520071527 54 239 12.0 17.0 0.00 0.00 0.00 47 1019.8
20240520070527 54 237 11.0 16.0 0.00 0.00 0.00 48 1019.7
20240520065527 54 232 14.0 21.0 0.00 0.00 0.00 48 1019.7
20240520064547 53 226 13.0 19.0 0.00 0.00 0.00 50 1019.7
20240520063527 53 230 11.0 16.0 0.00 0.00 0.00 50 1019.7
20240520062529 53 233 12.0 19.0 0.00 0.00 0.00 50 1019.7
20240520061527 54 240 12.0 18.0 0.00 0.00 0.00 50 1019.6
20240520060528 54 241 12.0 18.0 0.00 0.00 0.00 50 1019.6
20240520055528 54 233 11.0 18.0 0.00 0.00 0.00 49 1019.6
20240520054528 54 231 8.0 13.0 0.00 0.00 0.00 49 1019.6
20240520053528 55 227 8.0 10.0 0.00 0.00 0.00 48 1019.5
20240520052529 55 240 7.0 13.0 0.00 0.00 0.00 48 1019.5
20240520051549 56 243 7.0 12.0 0.00 0.00 0.00 48 1019.4
20240520050549 57 263 15.0 21.0 0.00 0.00 0.00 46 1019.3
20240520045528 57 274 12.0 18.0 0.00 0.00 0.00 46 1019.3
20240520044529 58 266 13.0 19.0 0.00 0.00 0.00 46 1019.1
20240520043529 58 263 12.0 20.0 0.00 0.00 0.00 47 1019.0
20240520042529 58 246 8.0 12.0 0.00 0.00 0.00 47 1018.8
20240520041533 59 269 9.0 14.0 0.00 0.00 0.00 48 1018.7
20240520040530 59 232 6.0 10.0 0.00 0.00 0.00 48 1018.5
20240520035529 60 307 7.0 13.0 0.00 0.00 0.00 48 1018.5
20240520034529 60 320 10.0 17.0 0.00 0.00 0.00 44 1018.4
20240520033529 61 259 8.0 14.0 0.00 0.00 0.00 42 1018.1
20240520032530 61 242 9.0 14.0 0.00 0.00 0.00 41 1018.0
20240520031530 62 258 9.0 14.0 0.00 0.00 0.00 41 1017.9
20240520030530 62 268 9.0 14.0 0.00 0.00 0.00 41 1017.9
20240520025530 62 284 11.0 16.0 0.00 0.00 0.00 41 1017.9
20240520024530 63 293 12.0 21.0 0.00 0.00 0.00 40 1017.7
20240520023531 64 291 15.0 18.0 0.00 0.00 0.00 38 1017.5
20240520022532 64 286 12.0 18.0 0.00 0.00 0.00 38 1017.4
20240520021611 64 290 11.0 17.0 0.00 0.00 0.00 39 1017.4
20240520020531 64 298 11.0 15.0 0.00 0.00 0.00 40 1017.3
20240520015552 65 267 13.0 18.0 0.00 0.00 0.00 39 1017.2
20240520014531 66 292 7.0 19.0 0.00 0.00 0.00 35 1017.1
20240520013532 67 219 3.0 6.0 0.00 0.00 0.00 30 1016.9
20240520012551 69 150 4.0 9.0 0.00 0.00 0.00 30 1017.0
20240520011531 69 309 2.0 7.0 0.00 0.00 0.00 31 1017.1
20240520010531 70 136 0.0 3.0 0.00 0.00 0.00 29 1017.1
20240520005533 70 157 3.0 6.0 0.00 0.00 0.00 30 1017.2
20240520004531 68 40 2.0 5.0 0.00 0.00 0.00 30 1017.2
20240520003532 67 98 4.0 8.0 0.00 0.00 0.00 31 1017.3
20240520002531 67 117 4.0 9.0 0.00 0.00 0.00 32 1017.3
20240520001532 67 270 7.0 12.0 0.00 0.00 0.00 31 1017.4
20240520000532 67 281 10.0 14.0 0.00 0.00 0.00 32 1017.4
20240519235533 68 290 6.0 12.0 0.00 0.00 0.00 32 1017.5
20240519234532 67 121 3.0 7.0 0.00 0.00 0.00 33 1017.5
20240519233533 67 331 6.0 14.0 0.00 0.00 0.00 33 1017.6
20240519232533 66 181 9.0 14.0 0.00 0.00 0.00 31 1017.6
20240519231533 67 308 7.0 12.0 0.00 0.00 0.00 32 1017.7
20240519230533 67 129 4.0 7.0 0.00 0.00 0.00 33 1017.7
20240519225533 66 207 4.0 10.0 0.00 0.00 0.00 31 1017.8
20240519224533 67 220 6.0 9.0 0.00 0.00 0.00 32 1017.8
20240519223533 66 340 3.0 7.0 0.00 0.00 0.00 34 1017.9
20240519222534 65 322 5.0 11.0 0.00 0.00 0.00 35 1018.0
20240519221533 63 287 4.0 10.0 0.00 0.00 0.00 34 1018.2
20240519220614 63 226 5.0 11.0 0.00 0.00 0.00 33 1018.3
20240519215534 64 239 7.0 13.0 0.00 0.00 0.00 34 1018.4
20240519214534 64 5 4.0 7.0 0.00 0.00 0.00 34 1018.4
20240519213534 65 285 6.0 12.0 0.00 0.00 0.00 35 1018.4
20240519212534 63 275 5.0 8.0 0.00 0.00 0.00 34 1018.5
20240519211534 63 289 6.0 10.0 0.00 0.00 0.00 35 1018.6
20240519210534 64 224 6.0 9.0 0.00 0.00 0.00 32 1018.6
20240519205554 64 308 8.0 13.0 0.00 0.00 0.00 35 1018.7
20240519204536 63 240 4.0 8.0 0.00 0.00 0.00 33 1018.7
20240519203534 64 238 7.0 15.0 0.00 0.00 0.00 32 1018.7
20240519202535 63 266 9.0 21.0 0.00 0.00 0.00 35 1018.8
20240519201535 63 274 4.0 15.0 0.00 0.00 0.00 34 1018.9
20240519200535 63 255 9.0 15.0 0.00 0.00 0.00 33 1018.9
20240519195536 64 320 9.0 15.0 0.00 0.00 0.00 36 1019.0
20240519194556 63 236 8.0 15.0 0.00 0.00 0.00 35 1019.1
20240519193537 62 283 7.0 14.0 0.00 0.00 0.00 39 1019.3
20240519192535 62 268 12.0 22.0 0.00 0.00 0.00 38 1019.3
20240519191535 61 276 4.0 9.0 0.00 0.00 0.00 38 1019.4
20240519190535 61 303 8.0 18.0 0.00 0.00 0.00 39 1019.5
20240519185536 61 286 10.0 22.0 0.00 0.00 0.00 41 1019.5
20240519184536 61 302 6.0 14.0 0.00 0.00 0.00 41 1019.5
20240519183556 60 276 5.0 13.0 0.00 0.00 0.00 40 1019.6
20240519182536 60 336 9.0 16.0 0.00 0.00 0.00 42 1019.6
20240519181536 59 322 5.0 13.0 0.00 0.00 0.00 41 1019.6
20240519180537 59 325 11.0 16.0 0.00 0.00 0.00 43 1019.6
20240519175537 59 271 5.0 17.0 0.00 0.00 0.00 42 1019.6
20240519174536 59 291 7.0 19.0 0.00 0.00 0.00 44 1019.7
20240519173537 58 265 8.0 15.0 0.00 0.00 0.00 44 1019.7
20240519172537 58 301 8.0 14.0 0.00 0.00 0.00 45 1019.7
20240519171537 58 311 7.0 15.0 0.00 0.00 0.00 45 1019.7
20240519170537 57 279 12.0 20.0 0.00 0.00 0.00 45 1019.7
20240519165537 57 230 6.0 12.0 0.00 0.00 0.00 44 1019.7
20240519164557 57 284 11.0 19.0 0.00 0.00 0.00 45 1019.7
20240519163558 56 250 8.0 18.0 0.00 0.00 0.00 46 1019.7
20240519162537 56 268 9.0 16.0 0.00 0.00 0.00 47 1019.8
20240519161559 55 240 7.0 11.0 0.00 0.00 0.00 47 1019.8
20240519160539 55 285 8.0 13.0 0.00 0.00 0.00 50 1019.8
20240519155558 55 303 4.0 11.0 0.00 0.00 0.00 49 1019.8
20240519154538 54 274 6.0 12.0 0.00 0.00 0.00 50 1019.7
20240519153538 53 280 7.0 12.0 0.00 0.00 0.00 52 1019.7
20240519152538 53 284 5.0 7.0 0.00 0.00 0.00 50 1019.6
20240519151539 53 285 7.0 11.0 0.00 0.00 0.00 52 1019.6
20240519150538 52 292 5.0 9.0 0.00 0.00 0.00 52 1019.5
20240519145539 51 287 4.0 8.0 0.00 0.00 0.00 53 1019.5
20240519144539 51 262 8.0 12.0 0.00 0.00 0.00 53 1019.4
20240519143539 50 261 8.0 12.0 0.00 0.00 0.00 55 1019.4
20240519142539 49 265 9.0 13.0 0.00 0.00 0.00 56 1019.2
20240519141539 49 250 8.0 11.0 0.00 0.00 0.00 57 1019.2
20240519140539 48 237 6.0 8.0 0.00 0.00 0.00 58 1019.3
20240519135541 48 283 3.0 5.0 0.00 0.00 0.00 59 1019.3
20240519134540 47 273 4.0 7.0 0.00 0.00 0.00 61 1019.1
20240519133540 45 236 4.0 8.0 0.00 0.00 0.00 62 1018.9
20240519132539 44 226 3.0 6.0 0.00 0.00 0.00 65 1018.8
20240519131541 43 219 2.0 5.0 0.00 0.00 0.00 68 1018.7
20240519130641 43 195 1.0 3.0 0.00 0.00 0.00 68 1018.6
20240519125541 41 165 5.0 7.0 0.00 0.00 0.00 69 1018.4
20240519124622 40 185 2.0 5.0 0.00 0.00 0.00 73 1018.3
20240519123601 40 255 1.0 4.0 0.00 0.00 0.00 71 1018.1
20240519122541 40 185 3.0 6.0 0.00 0.00 0.00 71 1018.0
20240519121540 40 124 1.0 3.0 0.00 0.00 0.00 71 1017.9
20240519120541 41 155 0.0 0.0 0.00 0.00 0.00 69 1017.8
20240519115541 42 46 2.0 6.0 0.00 0.00 0.00 67 1017.8
20240519114540 43 155 1.0 4.0 0.00 0.00 0.00 66 1017.7
20240519113541 44 207 0.0 3.0 0.00 0.00 0.00 64 1017.6
20240519112541 45 315 1.0 5.0 0.00 0.00 0.00 64 1017.5
20240519111541 45 238 2.0 4.0 0.00 0.00 0.00 62 1017.6
20240519110541 46 243 3.0 5.0 0.00 0.00 0.00 61 1017.5
20240519105541 46 247 4.0 5.0 0.00 0.00 0.00 62 1017.4
20240519104541 48 265 8.0 12.0 0.00 0.00 0.00 55 1017.3
20240519103601 48 241 9.0 13.0 0.00 0.00 0.00 55 1017.3
20240519102602 47 238 6.0 13.0 0.00 0.00 0.00 57 1017.2
20240519101542 47 241 6.0 9.0 0.00 0.00 0.00 58 1017.2
20240519100542 48 260 6.0 10.0 0.00 0.00 0.00 56 1017.1
20240519095542 48 238 6.0 11.0 0.00 0.00 0.00 55 1017.1
20240519094543 49 231 7.0 12.0 0.00 0.00 0.00 55 1017.1
20240519093544 47 231 6.0 12.0 0.00 0.00 0.00 57 1017.0
20240519092544 47 222 3.0 6.0 0.00 0.00 0.00 58 1016.8
20240519091546 48 257 4.0 7.0 0.00 0.00 0.00 58 1016.8
20240519090544 49 234 8.0 15.0 0.00 0.00 0.00 54 1016.6
20240519085603 49 226 8.0 16.0 0.00 0.00 0.00 55 1016.6
20240519084603 49 238 10.0 17.0 0.00 0.00 0.00 55 1016.5